aviador You're here:

SARE Decoded Metar

RESISTENCIA in ARGENTINA
Report Time2018-02-22 08:00:00
UTC Time2018-02-22 08:42:50
Flight Rules vfr VFR
Wind260° at 02 kt
W.Decomp.*RWY 21: 1.0 kt HW 1.7 kt RCW
W.Rank260° ranks 32
Current wind is below 260° avg. (4.8)
Visibility9999 m
Phenomena:N/A
Clouds:N/A
Expected CloudBase > 400 ft AGL from Temp-Dew spread
CeilingNone
Temp16°C (ISA +1)
Dew Point15°C (94% RH)
QNH1013 hPa
Density Alt558 ft
Elevation171 ft
Report Wrong Elevation
Raw Report
SARE 220800Z 26002KT CAVOK 16/15 Q1013=

Extra information for SARE:More info

Metar Taf Metar & Taf Last 4 Metars F.Rules Stats Wind Profile Meteogram Temp Stats Airport Information Weather charts Add Link Nearby VenuesMetar ALERT Operation Metar Decoded Social comments